sensor_id;sensor_type;location;lat;lon;timestamp;P1;durP1;ratioP1;P2;durP2;ratioP2
18176;SDS011;9213;50.858;3.964;2023-06-26T00:00:07;6.13;;;3.97;;
18176;SDS011;9213;50.858;3.964;2023-06-26T00:02:36;4.57;;;3.70;;
18176;SDS011;9213;50.858;3.964;2023-06-26T00:05:03;6.13;;;3.47;;
18176;SDS011;9213;50.858;3.964;2023-06-26T00:07:30;5.20;;;3.58;;
18176;SDS011;9213;50.858;3.964;2023-06-26T00:09:59;4.55;;;3.70;;
18176;SDS011;9213;50.858;3.964;2023-06-26T00:12:27;6.38;;;3.88;;
18176;SDS011;9213;50.858;3.964;2023-06-26T00:14:54;5.90;;;3.83;;
18176;SDS011;9213;50.858;3.964;2023-06-26T00:17:21;3.72;;;3.38;;
18176;SDS011;9213;50.858;3.964;2023-06-26T00:19:50;9.40;;;4.35;;
18176;SDS011;9213;50.858;3.964;2023-06-26T00:22:17;5.38;;;4.07;;
18176;SDS011;9213;50.858;3.964;2023-06-26T00:24:45;3.95;;;3.50;;
18176;SDS011;9213;50.858;3.964;2023-06-26T00:27:11;6.70;;;4.30;;
18176;SDS011;9213;50.858;3.964;2023-06-26T00:29:40;4.82;;;3.75;;
18176;SDS011;9213;50.858;3.964;2023-06-26T00:32:07;7.22;;;3.55;;
18176;SDS011;9213;50.858;3.964;2023-06-26T00:34:34;3.78;;;3.28;;
18176;SDS011;9213;50.858;3.964;2023-06-26T00:37:01;5.30;;;3.45;;
18176;SDS011;9213;50.858;3.964;2023-06-26T00:39:29;5.28;;;3.60;;
18176;SDS011;9213;50.858;3.964;2023-06-26T00:41:55;5.63;;;3.42;;
18176;SDS011;9213;50.858;3.964;2023-06-26T00:44:22;4.57;;;3.17;;
18176;SDS011;9213;50.858;3.964;2023-06-26T00:46:51;4.50;;;3.25;;
18176;SDS011;9213;50.858;3.964;2023-06-26T00:49:18;6.45;;;3.67;;
18176;SDS011;9213;50.858;3.964;2023-06-26T00:51:45;3.97;;;3.13;;
18176;SDS011;9213;50.858;3.964;2023-06-26T00:54:13;5.93;;;3.30;;
18176;SDS011;9213;50.858;3.964;2023-06-26T00:56:45;4.57;;;3.22;;
18176;SDS011;9213;50.858;3.964;2023-06-26T00:59:13;6.07;;;3.10;;
18176;SDS011;9213;50.858;3.964;2023-06-26T01:01:40;5.78;;;3.40;;
18176;SDS011;9213;50.858;3.964;2023-06-26T01:04:08;6.53;;;3.53;;
18176;SDS011;9213;50.858;3.964;2023-06-26T01:06:42;5.47;;;3.00;;
18176;SDS011;9213;50.858;3.964;2023-06-26T01:09:14;4.57;;;3.15;;
18176;SDS011;9213;50.858;3.964;2023-06-26T01:11:42;5.88;;;3.53;;
18176;SDS011;9213;50.858;3.964;2023-06-26T01:14:09;6.55;;;3.22;;
18176;SDS011;9213;50.858;3.964;2023-06-26T01:16:36;4.75;;;3.47;;
18176;SDS011;9213;50.858;3.964;2023-06-26T01:19:04;6.07;;;3.50;;
18176;SDS011;9213;50.858;3.964;2023-06-26T01:21:40;5.57;;;2.97;;
18176;SDS011;9213;50.858;3.964;2023-06-26T01:24:12;6.28;;;3.55;;
18176;SDS011;9213;50.858;3.964;2023-06-26T01:26:46;6.28;;;3.80;;
18176;SDS011;9213;50.858;3.964;2023-06-26T01:29:17;6.88;;;3.90;;
18176;SDS011;9213;50.858;3.964;2023-06-26T01:31:45;5.57;;;3.92;;
18176;SDS011;9213;50.858;3.964;2023-06-26T01:34:14;6.65;;;3.67;;
18176;SDS011;9213;50.858;3.964;2023-06-26T01:36:41;7.13;;;4.40;;
18176;SDS011;9213;50.858;3.964;2023-06-26T01:39:09;7.47;;;3.88;;
18176;SDS011;9213;50.858;3.964;2023-06-26T01:41:36;5.72;;;3.65;;
18176;SDS011;9213;50.858;3.964;2023-06-26T01:44:10;6.28;;;3.95;;
18176;SDS011;9213;50.858;3.964;2023-06-26T01:46:46;7.25;;;3.92;;
18176;SDS011;9213;50.858;3.964;2023-06-26T01:49:26;8.40;;;4.03;;
18176;SDS011;9213;50.858;3.964;2023-06-26T01:52:04;8.05;;;4.00;;
18176;SDS011;9213;50.858;3.964;2023-06-26T01:54:37;7.00;;;3.83;;
18176;SDS011;9213;50.858;3.964;2023-06-26T01:57:08;9.10;;;4.13;;
18176;SDS011;9213;50.858;3.964;2023-06-26T01:59:38;7.97;;;4.03;;
18176;SDS011;9213;50.858;3.964;2023-06-26T02:02:08;8.02;;;4.05;;
18176;SDS011;9213;50.858;3.964;2023-06-26T02:04:35;9.13;;;4.47;;
18176;SDS011;9213;50.858;3.964;2023-06-26T02:07:02;10.68;;;4.80;;
18176;SDS011;9213;50.858;3.964;2023-06-26T02:09:29;8.60;;;4.50;;
18176;SDS011;9213;50.858;3.964;2023-06-26T02:11:56;10.75;;;4.60;;
18176;SDS011;9213;50.858;3.964;2023-06-26T02:14:23;11.45;;;4.75;;
18176;SDS011;9213;50.858;3.964;2023-06-26T02:16:51;9.57;;;4.32;;
18176;SDS011;9213;50.858;3.964;2023-06-26T02:19:18;13.10;;;4.75;;
18176;SDS011;9213;50.858;3.964;2023-06-26T02:21:46;9.43;;;4.88;;
18176;SDS011;9213;50.858;3.964;2023-06-26T02:24:14;8.88;;;4.30;;
18176;SDS011;9213;50.858;3.964;2023-06-26T02:26:41;10.02;;;4.82;;
18176;SDS011;9213;50.858;3.964;2023-06-26T02:29:08;10.80;;;5.13;;
18176;SDS011;9213;50.858;3.964;2023-06-26T02:31:35;10.50;;;4.90;;
18176;SDS011;9213;50.858;3.964;2023-06-26T02:34:03;11.63;;;4.75;;
18176;SDS011;9213;50.858;3.964;2023-06-26T02:36:30;11.93;;;4.68;;
18176;SDS011;9213;50.858;3.964;2023-06-26T02:38:57;9.05;;;4.55;;
18176;SDS011;9213;50.858;3.964;2023-06-26T02:41:24;14.65;;;4.97;;
18176;SDS011;9213;50.858;3.964;2023-06-26T02:43:50;16.80;;;5.10;;
18176;SDS011;9213;50.858;3.964;2023-06-26T02:46:17;11.20;;;4.95;;
18176;SDS011;9213;50.858;3.964;2023-06-26T02:48:44;11.50;;;5.47;;
18176;SDS011;9213;50.858;3.964;2023-06-26T02:51:12;13.20;;;5.13;;
18176;SDS011;9213;50.858;3.964;2023-06-26T02:53:39;13.48;;;5.57;;
18176;SDS011;9213;50.858;3.964;2023-06-26T02:56:06;11.02;;;4.78;;
18176;SDS011;9213;50.858;3.964;2023-06-26T02:58:33;11.40;;;5.00;;
18176;SDS011;9213;50.858;3.964;2023-06-26T03:01:00;9.15;;;4.50;;
18176;SDS011;9213;50.858;3.964;2023-06-26T03:03:27;12.93;;;4.72;;
18176;SDS011;9213;50.858;3.964;2023-06-26T03:05:54;18.65;;;5.05;;
18176;SDS011;9213;50.858;3.964;2023-06-26T03:08:23;15.13;;;5.70;;
18176;SDS011;9213;50.858;3.964;2023-06-26T03:10:50;15.77;;;5.20;;
18176;SDS011;9213;50.858;3.964;2023-06-26T03:13:17;14.57;;;4.88;;
18176;SDS011;9213;50.858;3.964;2023-06-26T03:15:44;12.35;;;5.03;;
18176;SDS011;9213;50.858;3.964;2023-06-26T03:18:11;13.07;;;4.63;;
18176;SDS011;9213;50.858;3.964;2023-06-26T03:20:38;12.98;;;5.20;;
18176;SDS011;9213;50.858;3.964;2023-06-26T03:23:05;21.05;;;5.63;;
18176;SDS011;9213;50.858;3.964;2023-06-26T03:25:33;11.77;;;5.15;;
18176;SDS011;9213;50.858;3.964;2023-06-26T03:28:00;15.55;;;5.63;;
18176;SDS011;9213;50.858;3.964;2023-06-26T03:30:27;13.93;;;4.90;;
18176;SDS011;9213;50.858;3.964;2023-06-26T03:32:54;16.80;;;5.00;;
18176;SDS011;9213;50.858;3.964;2023-06-26T03:35:21;12.40;;;4.90;;
18176;SDS011;9213;50.858;3.964;2023-06-26T03:37:48;14.23;;;5.00;;
18176;SDS011;9213;50.858;3.964;2023-06-26T03:40:15;13.00;;;4.97;;
18176;SDS011;9213;50.858;3.964;2023-06-26T03:42:43;15.38;;;4.90;;
18176;SDS011;9213;50.858;3.964;2023-06-26T03:45:10;13.60;;;4.78;;
18176;SDS011;9213;50.858;3.964;2023-06-26T03:47:37;15.05;;;5.10;;
18176;SDS011;9213;50.858;3.964;2023-06-26T03:50:05;12.68;;;5.25;;
18176;SDS011;9213;50.858;3.964;2023-06-26T03:52:32;14.90;;;4.93;;
18176;SDS011;9213;50.858;3.964;2023-06-26T03:54:59;14.30;;;5.18;;
18176;SDS011;9213;50.858;3.964;2023-06-26T03:57:28;19.52;;;5.35;;
18176;SDS011;9213;50.858;3.964;2023-06-26T03:59:56;13.95;;;4.85;;
18176;SDS011;9213;50.858;3.964;2023-06-26T04:02:23;13.82;;;4.72;;
18176;SDS011;9213;50.858;3.964;2023-06-26T04:04:49;16.63;;;4.90;;
18176;SDS011;9213;50.858;3.964;2023-06-26T04:07:17;15.32;;;5.30;;
18176;SDS011;9213;50.858;3.964;2023-06-26T04:09:44;12.30;;;4.80;;
18176;SDS011;9213;50.858;3.964;2023-06-26T04:12:11;16.63;;;5.15;;
18176;SDS011;9213;50.858;3.964;2023-06-26T04:14:38;18.30;;;5.38;;
18176;SDS011;9213;50.858;3.964;2023-06-26T04:17:06;10.52;;;4.75;;
18176;SDS011;9213;50.858;3.964;2023-06-26T04:19:33;14.82;;;4.63;;
18176;SDS011;9213;50.858;3.964;2023-06-26T04:22:01;15.63;;;4.68;;
18176;SDS011;9213;50.858;3.964;2023-06-26T04:24:28;12.57;;;4.05;;
18176;SDS011;9213;50.858;3.964;2023-06-26T04:26:55;11.07;;;4.22;;
18176;SDS011;9213;50.858;3.964;2023-06-26T04:29:22;12.68;;;4.47;;
18176;SDS011;9213;50.858;3.964;2023-06-26T04:31:50;10.68;;;4.63;;
18176;SDS011;9213;50.858;3.964;2023-06-26T04:34:18;11.48;;;4.70;;
18176;SDS011;9213;50.858;3.964;2023-06-26T04:36:45;11.10;;;4.10;;
18176;SDS011;9213;50.858;3.964;2023-06-26T04:39:13;14.07;;;3.95;;
18176;SDS011;9213;50.858;3.964;2023-06-26T04:41:40;17.27;;;4.13;;
18176;SDS011;9213;50.858;3.964;2023-06-26T04:44:07;12.50;;;4.20;;
18176;SDS011;9213;50.858;3.964;2023-06-26T04:46:34;10.38;;;3.60;;
18176;SDS011;9213;50.858;3.964;2023-06-26T04:49:02;11.60;;;3.92;;
18176;SDS011;9213;50.858;3.964;2023-06-26T04:51:30;11.63;;;3.90;;
18176;SDS011;9213;50.858;3.964;2023-06-26T04:53:57;13.05;;;4.00;;
18176;SDS011;9213;50.858;3.964;2023-06-26T04:56:24;11.15;;;3.90;;
18176;SDS011;9213;50.858;3.964;2023-06-26T04:58:51;13.27;;;3.90;;
18176;SDS011;9213;50.858;3.964;2023-06-26T05:01:19;9.02;;;3.63;;
18176;SDS011;9213;50.858;3.964;2023-06-26T05:03:46;15.20;;;4.32;;
18176;SDS011;9213;50.858;3.964;2023-06-26T05:06:13;12.98;;;3.50;;
18176;SDS011;9213;50.858;3.964;2023-06-26T05:08:41;16.52;;;3.83;;
18176;SDS011;9213;50.858;3.964;2023-06-26T05:11:08;9.68;;;3.63;;
18176;SDS011;9213;50.858;3.964;2023-06-26T05:13:34;8.65;;;3.28;;
18176;SDS011;9213;50.858;3.964;2023-06-26T05:16:01;10.70;;;3.55;;
18176;SDS011;9213;50.858;3.964;2023-06-26T05:18:28;8.82;;;3.42;;
18176;SDS011;9213;50.858;3.964;2023-06-26T05:20:55;9.82;;;3.30;;
18176;SDS011;9213;50.858;3.964;2023-06-26T05:23:23;8.60;;;3.38;;
18176;SDS011;9213;50.858;3.964;2023-06-26T05:25:53;8.77;;;2.90;;
18176;SDS011;9213;50.858;3.964;2023-06-26T05:28:21;10.95;;;3.25;;
18176;SDS011;9213;50.858;3.964;2023-06-26T05:30:49;9.70;;;3.35;;
18176;SDS011;9213;50.858;3.964;2023-06-26T05:33:17;8.00;;;3.00;;
18176;SDS011;9213;50.858;3.964;2023-06-26T05:35:45;8.00;;;2.85;;
18176;SDS011;9213;50.858;3.964;2023-06-26T05:38:13;10.32;;;2.65;;
18176;SDS011;9213;50.858;3.964;2023-06-26T05:40:40;10.27;;;2.78;;
18176;SDS011;9213;50.858;3.964;2023-06-26T05:43:09;7.25;;;2.92;;
18176;SDS011;9213;50.858;3.964;2023-06-26T05:45:36;8.38;;;2.90;;
18176;SDS011;9213;50.858;3.964;2023-06-26T05:48:04;9.02;;;2.90;;
18176;SDS011;9213;50.858;3.964;2023-06-26T05:50:31;6.40;;;2.38;;
18176;SDS011;9213;50.858;3.964;2023-06-26T05:52:59;7.68;;;2.25;;
18176;SDS011;9213;50.858;3.964;2023-06-26T05:55:28;7.75;;;2.75;;
18176;SDS011;9213;50.858;3.964;2023-06-26T05:57:55;10.57;;;2.55;;
18176;SDS011;9213;50.858;3.964;2023-06-26T06:00:27;9.82;;;2.53;;
18176;SDS011;9213;50.858;3.964;2023-06-26T06:02:54;6.85;;;2.05;;
18176;SDS011;9213;50.858;3.964;2023-06-26T06:05:21;6.05;;;2.25;;
18176;SDS011;9213;50.858;3.964;2023-06-26T06:07:48;4.88;;;2.53;;
18176;SDS011;9213;50.858;3.964;2023-06-26T06:10:15;3.83;;;2.38;;
18176;SDS011;9213;50.858;3.964;2023-06-26T06:12:43;5.32;;;2.65;;
18176;SDS011;9213;50.858;3.964;2023-06-26T06:15:09;9.38;;;2.30;;
18176;SDS011;9213;50.858;3.964;2023-06-26T06:17:38;6.43;;;2.15;;
18176;SDS011;9213;50.858;3.964;2023-06-26T06:20:05;9.07;;;2.50;;
18176;SDS011;9213;50.858;3.964;2023-06-26T06:22:32;9.48;;;2.78;;
18176;SDS011;9213;50.858;3.964;2023-06-26T06:24:59;11.90;;;2.80;;
18176;SDS011;9213;50.858;3.964;2023-06-26T06:27:26;10.55;;;2.40;;
18176;SDS011;9213;50.858;3.964;2023-06-26T06:29:53;6.32;;;2.42;;
18176;SDS011;9213;50.858;3.964;2023-06-26T06:32:20;4.40;;;2.15;;
18176;SDS011;9213;50.858;3.964;2023-06-26T06:34:49;5.05;;;2.25;;
18176;SDS011;9213;50.858;3.964;2023-06-26T06:37:16;4.13;;;2.15;;
18176;SDS011;9213;50.858;3.964;2023-06-26T06:39:43;6.20;;;2.15;;
18176;SDS011;9213;50.858;3.964;2023-06-26T06:42:09;8.10;;;2.35;;
18176;SDS011;9213;50.858;3.964;2023-06-26T06:44:37;6.25;;;2.13;;
18176;SDS011;9213;50.858;3.964;2023-06-26T06:47:03;7.55;;;2.33;;
18176;SDS011;9213;50.858;3.964;2023-06-26T06:49:30;5.97;;;2.33;;
18176;SDS011;9213;50.858;3.964;2023-06-26T06:51:59;5.53;;;2.33;;
18176;SDS011;9213;50.858;3.964;2023-06-26T06:54:26;5.47;;;2.13;;
18176;SDS011;9213;50.858;3.964;2023-06-26T06:56:53;6.53;;;2.08;;
18176;SDS011;9213;50.858;3.964;2023-06-26T06:59:20;7.53;;;2.13;;
18176;SDS011;9213;50.858;3.964;2023-06-26T07:01:47;5.75;;;1.90;;
18176;SDS011;9213;50.858;3.964;2023-06-26T07:04:14;5.22;;;2.00;;
18176;SDS011;9213;50.858;3.964;2023-06-26T07:06:41;6.22;;;2.13;;
18176;SDS011;9213;50.858;3.964;2023-06-26T07:09:09;3.35;;;1.90;;
18176;SDS011;9213;50.858;3.964;2023-06-26T07:11:36;5.10;;;1.92;;
18176;SDS011;9213;50.858;3.964;2023-06-26T07:14:03;6.45;;;2.55;;
18176;SDS011;9213;50.858;3.964;2023-06-26T07:16:30;6.50;;;2.13;;
18176;SDS011;9213;50.858;3.964;2023-06-26T07:18:57;4.85;;;1.98;;
18176;SDS011;9213;50.858;3.964;2023-06-26T07:21:23;5.93;;;1.95;;
18176;SDS011;9213;50.858;3.964;2023-06-26T07:23:50;5.15;;;2.00;;
18176;SDS011;9213;50.858;3.964;2023-06-26T07:26:19;2.72;;;1.88;;
18176;SDS011;9213;50.858;3.964;2023-06-26T07:28:47;6.32;;;1.80;;
18176;SDS011;9213;50.858;3.964;2023-06-26T07:31:14;3.55;;;1.65;;
18176;SDS011;9213;50.858;3.964;2023-06-26T07:33:42;2.75;;;1.73;;
18176;SDS011;9213;50.858;3.964;2023-06-26T07:36:09;6.03;;;2.40;;
18176;SDS011;9213;50.858;3.964;2023-06-26T07:38:36;4.22;;;1.67;;
18176;SDS011;9213;50.858;3.964;2023-06-26T07:41:03;3.83;;;1.70;;
18176;SDS011;9213;50.858;3.964;2023-06-26T07:43:31;5.55;;;1.60;;
18176;SDS011;9213;50.858;3.964;2023-06-26T07:45:58;5.05;;;1.80;;
18176;SDS011;9213;50.858;3.964;2023-06-26T07:48:25;5.50;;;2.50;;
18176;SDS011;9213;50.858;3.964;2023-06-26T07:50:52;4.80;;;1.65;;
18176;SDS011;9213;50.858;3.964;2023-06-26T07:53:19;5.00;;;1.88;;
18176;SDS011;9213;50.858;3.964;2023-06-26T07:55:46;5.25;;;2.00;;
18176;SDS011;9213;50.858;3.964;2023-06-26T07:58:13;5.85;;;1.80;;
18176;SDS011;9213;50.858;3.964;2023-06-26T08:00:41;4.78;;;1.83;;
18176;SDS011;9213;50.858;3.964;2023-06-26T08:03:08;4.40;;;1.80;;
18176;SDS011;9213;50.858;3.964;2023-06-26T08:05:35;3.70;;;1.50;;
18176;SDS011;9213;50.858;3.964;2023-06-26T08:08:02;4.63;;;1.80;;
18176;SDS011;9213;50.858;3.964;2023-06-26T08:10:29;5.13;;;1.70;;
18176;SDS011;9213;50.858;3.964;2023-06-26T08:12:56;4.63;;;1.73;;
18176;SDS011;9213;50.858;3.964;2023-06-26T08:15:23;5.82;;;1.60;;
18176;SDS011;9213;50.858;3.964;2023-06-26T08:17:51;5.18;;;1.88;;
18176;SDS011;9213;50.858;3.964;2023-06-26T08:20:18;3.10;;;1.63;;
18176;SDS011;9213;50.858;3.964;2023-06-26T08:22:45;4.50;;;1.70;;
18176;SDS011;9213;50.858;3.964;2023-06-26T08:25:14;4.20;;;1.77;;
18176;SDS011;9213;50.858;3.964;2023-06-26T08:27:41;5.70;;;1.80;;
18176;SDS011;9213;50.858;3.964;2023-06-26T08:30:08;4.93;;;1.70;;
18176;SDS011;9213;50.858;3.964;2023-06-26T08:32:35;3.97;;;2.00;;
18176;SDS011;9213;50.858;3.964;2023-06-26T08:35:04;3.63;;;1.52;;
18176;SDS011;9213;50.858;3.964;2023-06-26T08:37:32;6.60;;;1.70;;
18176;SDS011;9213;50.858;3.964;2023-06-26T08:39:59;4.97;;;2.00;;
18176;SDS011;9213;50.858;3.964;2023-06-26T08:42:26;5.50;;;1.90;;
18176;SDS011;9213;50.858;3.964;2023-06-26T08:44:53;8.25;;;2.03;;
18176;SDS011;9213;50.858;3.964;2023-06-26T08:47:20;5.97;;;2.08;;
18176;SDS011;9213;50.858;3.964;2023-06-26T08:49:50;5.57;;;1.90;;
18176;SDS011;9213;50.858;3.964;2023-06-26T08:52:23;4.82;;;1.90;;
18176;SDS011;9213;50.858;3.964;2023-06-26T08:54:55;4.35;;;2.30;;
18176;SDS011;9213;50.858;3.964;2023-06-26T08:57:24;4.53;;;1.90;;
18176;SDS011;9213;50.858;3.964;2023-06-26T08:59:53;4.80;;;1.88;;
18176;SDS011;9213;50.858;3.964;2023-06-26T09:02:20;4.50;;;1.92;;
18176;SDS011;9213;50.858;3.964;2023-06-26T09:04:47;6.68;;;1.77;;
18176;SDS011;9213;50.858;3.964;2023-06-26T09:07:15;2.47;;;1.75;;
18176;SDS011;9213;50.858;3.964;2023-06-26T09:09:43;3.03;;;1.65;;
18176;SDS011;9213;50.858;3.964;2023-06-26T09:12:10;3.33;;;1.50;;
18176;SDS011;9213;50.858;3.964;2023-06-26T09:14:37;3.40;;;1.58;;
18176;SDS011;9213;50.858;3.964;2023-06-26T09:17:04;2.72;;;1.63;;
18176;SDS011;9213;50.858;3.964;2023-06-26T09:19:32;7.00;;;1.80;;
18176;SDS011;9213;50.858;3.964;2023-06-26T09:21:58;3.65;;;1.55;;
18176;SDS011;9213;50.858;3.964;2023-06-26T09:24:26;2.85;;;1.70;;
18176;SDS011;9213;50.858;3.964;2023-06-26T09:26:55;4.15;;;1.85;;
18176;SDS011;9213;50.858;3.964;2023-06-26T09:29:22;5.10;;;1.90;;
18176;SDS011;9213;50.858;3.964;2023-06-26T09:31:50;4.50;;;1.80;;
18176;SDS011;9213;50.858;3.964;2023-06-26T09:34:17;3.58;;;1.55;;
18176;SDS011;9213;50.858;3.964;2023-06-26T09:36:45;2.72;;;1.55;;
18176;SDS011;9213;50.858;3.964;2023-06-26T09:39:14;3.00;;;1.77;;
18176;SDS011;9213;50.858;3.964;2023-06-26T09:41:41;3.33;;;1.52;;
18176;SDS011;9213;50.858;3.964;2023-06-26T09:44:10;6.75;;;1.77;;
18176;SDS011;9213;50.858;3.964;2023-06-26T09:46:39;2.70;;;1.45;;
18176;SDS011;9213;50.858;3.964;2023-06-26T09:49:06;4.95;;;2.08;;
18176;SDS011;9213;50.858;3.964;2023-06-26T09:51:36;6.13;;;2.00;;
18176;SDS011;9213;50.858;3.964;2023-06-26T09:54:05;4.75;;;2.00;;
18176;SDS011;9213;50.858;3.964;2023-06-26T09:56:32;3.17;;;1.83;;
18176;SDS011;9213;50.858;3.964;2023-06-26T09:59:01;5.30;;;1.92;;
18176;SDS011;9213;50.858;3.964;2023-06-26T10:01:31;4.50;;;2.20;;
18176;SDS011;9213;50.858;3.964;2023-06-26T10:03:59;4.85;;;1.90;;
18176;SDS011;9213;50.858;3.964;2023-06-26T10:06:27;2.67;;;1.90;;
18176;SDS011;9213;50.858;3.964;2023-06-26T10:08:57;2.55;;;1.67;;
18176;SDS011;9213;50.858;3.964;2023-06-26T10:11:27;4.82;;;1.77;;
18176;SDS011;9213;50.858;3.964;2023-06-26T10:13:59;3.33;;;1.70;;
18176;SDS011;9213;50.858;3.964;2023-06-26T10:16:27;3.40;;;1.73;;
18176;SDS011;9213;50.858;3.964;2023-06-26T10:19:01;4.10;;;1.75;;
18176;SDS011;9213;50.858;3.964;2023-06-26T10:21:31;6.38;;;1.80;;
18176;SDS011;9213;50.858;3.964;2023-06-26T10:24:01;3.75;;;1.73;;
18176;SDS011;9213;50.858;3.964;2023-06-26T10:26:30;4.53;;;1.88;;
18176;SDS011;9213;50.858;3.964;2023-06-26T10:29:01;4.18;;;1.75;;
18176;SDS011;9213;50.858;3.964;2023-06-26T10:31:29;3.97;;;1.80;;
18176;SDS011;9213;50.858;3.964;2023-06-26T10:33:58;5.75;;;2.40;;
18176;SDS011;9213;50.858;3.964;2023-06-26T10:36:30;2.70;;;2.03;;
18176;SDS011;9213;50.858;3.964;2023-06-26T10:38:58;5.90;;;2.40;;
18176;SDS011;9213;50.858;3.964;2023-06-26T10:41:35;6.22;;;2.20;;
18176;SDS011;9213;50.858;3.964;2023-06-26T10:44:06;4.93;;;2.20;;
18176;SDS011;9213;50.858;3.964;2023-06-26T10:46:39;5.93;;;2.58;;
18176;SDS011;9213;50.858;3.964;2023-06-26T10:49:17;3.70;;;2.00;;
18176;SDS011;9213;50.858;3.964;2023-06-26T10:51:47;3.75;;;1.88;;
18176;SDS011;9213;50.858;3.964;2023-06-26T10:54:15;4.85;;;1.90;;
18176;SDS011;9213;50.858;3.964;2023-06-26T10:56:44;3.38;;;2.00;;
18176;SDS011;9213;50.858;3.964;2023-06-26T10:59:15;3.38;;;2.00;;
18176;SDS011;9213;50.858;3.964;2023-06-26T11:01:44;6.28;;;1.77;;
18176;SDS011;9213;50.858;3.964;2023-06-26T11:04:12;5.70;;;1.90;;
18176;SDS011;9213;50.858;3.964;2023-06-26T11:06:44;4.85;;;2.03;;
18176;SDS011;9213;50.858;3.964;2023-06-26T11:09:15;6.15;;;1.75;;
18176;SDS011;9213;50.858;3.964;2023-06-26T11:11:59;2.78;;;1.90;;
18176;SDS011;9213;50.858;3.964;2023-06-26T11:14:31;3.67;;;1.70;;
18176;SDS011;9213;50.858;3.964;2023-06-26T11:16:58;3.78;;;1.48;;
18176;SDS011;9213;50.858;3.964;2023-06-26T11:19:28;5.05;;;1.50;;
18176;SDS011;9213;50.858;3.964;2023-06-26T11:21:59;4.50;;;1.40;;
18176;SDS011;9213;50.858;3.964;2023-06-26T11:24:29;3.67;;;1.65;;
18176;SDS011;9213;50.858;3.964;2023-06-26T11:26:59;4.47;;;1.65;;
18176;SDS011;9213;50.858;3.964;2023-06-26T11:29:27;2.30;;;1.50;;
18176;SDS011;9213;50.858;3.964;2023-06-26T11:31:58;5.60;;;1.70;;
18176;SDS011;9213;50.858;3.964;2023-06-26T11:34:31;7.10;;;1.58;;
18176;SDS011;9213;50.858;3.964;2023-06-26T11:36:59;2.75;;;1.70;;
18176;SDS011;9213;50.858;3.964;2023-06-26T11:39:28;5.93;;;1.85;;
18176;SDS011;9213;50.858;3.964;2023-06-26T11:41:56;3.63;;;1.55;;
18176;SDS011;9213;50.858;3.964;2023-06-26T11:44:23;4.55;;;1.50;;
18176;SDS011;9213;50.858;3.964;2023-06-26T11:46:53;1.63;;;1.50;;
18176;SDS011;9213;50.858;3.964;2023-06-26T11:49:21;4.10;;;1.45;;
18176;SDS011;9213;50.858;3.964;2023-06-26T11:51:50;2.83;;;1.70;;
18176;SDS011;9213;50.858;3.964;2023-06-26T11:54:24;3.63;;;1.50;;
18176;SDS011;9213;50.858;3.964;2023-06-26T11:56:55;3.85;;;1.40;;
18176;SDS011;9213;50.858;3.964;2023-06-26T11:59:23;4.40;;;1.67;;
18176;SDS011;9213;50.858;3.964;2023-06-26T12:01:51;6.35;;;1.98;;
18176;SDS011;9213;50.858;3.964;2023-06-26T12:04:18;3.42;;;1.60;;
18176;SDS011;9213;50.858;3.964;2023-06-26T12:06:47;3.90;;;1.80;;
18176;SDS011;9213;50.858;3.964;2023-06-26T12:09:17;3.25;;;1.58;;
18176;SDS011;9213;50.858;3.964;2023-06-26T12:11:46;4.32;;;1.90;;
18176;SDS011;9213;50.858;3.964;2023-06-26T12:14:16;3.75;;;1.58;;
18176;SDS011;9213;50.858;3.964;2023-06-26T12:16:45;2.17;;;1.63;;
18176;SDS011;9213;50.858;3.964;2023-06-26T12:19:12;5.53;;;1.60;;
18176;SDS011;9213;50.858;3.964;2023-06-26T12:21:45;2.47;;;1.58;;
18176;SDS011;9213;50.858;3.964;2023-06-26T12:24:14;4.45;;;1.67;;
18176;SDS011;9213;50.858;3.964;2023-06-26T12:26:42;3.38;;;1.60;;
18176;SDS011;9213;50.858;3.964;2023-06-26T12:29:12;4.10;;;1.52;;
18176;SDS011;9213;50.858;3.964;2023-06-26T12:31:40;4.72;;;1.90;;
18176;SDS011;9213;50.858;3.964;2023-06-26T12:34:11;5.40;;;1.77;;
18176;SDS011;9213;50.858;3.964;2023-06-26T12:36:42;4.57;;;1.60;;
18176;SDS011;9213;50.858;3.964;2023-06-26T12:39:09;5.28;;;1.70;;
18176;SDS011;9213;50.858;3.964;2023-06-26T12:41:44;2.60;;;1.30;;
18176;SDS011;9213;50.858;3.964;2023-06-26T12:44:22;2.90;;;1.40;;
18176;SDS011;9213;50.858;3.964;2023-06-26T12:46:53;3.40;;;1.80;;
18176;SDS011;9213;50.858;3.964;2023-06-26T12:49:28;3.15;;;1.40;;
18176;SDS011;9213;50.858;3.964;2023-06-26T12:51:57;3.53;;;1.50;;
18176;SDS011;9213;50.858;3.964;2023-06-26T12:54:24;3.55;;;1.58;;
18176;SDS011;9213;50.858;3.964;2023-06-26T12:56:51;4.47;;;1.52;;
18176;SDS011;9213;50.858;3.964;2023-06-26T12:59:18;3.03;;;1.40;;
18176;SDS011;9213;50.858;3.964;2023-06-26T13:01:46;3.03;;;1.40;;
18176;SDS011;9213;50.858;3.964;2023-06-26T13:04:14;2.50;;;1.30;;
18176;SDS011;9213;50.858;3.964;2023-06-26T13:06:41;5.32;;;1.90;;
18176;SDS011;9213;50.858;3.964;2023-06-26T13:09:08;3.78;;;1.30;;
18176;SDS011;9213;50.858;3.964;2023-06-26T13:11:36;2.80;;;1.65;;
18176;SDS011;9213;50.858;3.964;2023-06-26T13:14:03;3.47;;;1.50;;
18176;SDS011;9213;50.858;3.964;2023-06-26T13:16:30;3.50;;;1.35;;
18176;SDS011;9213;50.858;3.964;2023-06-26T13:18:59;4.13;;;1.52;;
18176;SDS011;9213;50.858;3.964;2023-06-26T13:21:26;3.40;;;1.13;;
18176;SDS011;9213;50.858;3.964;2023-06-26T13:23:54;3.83;;;1.75;;
18176;SDS011;9213;50.858;3.964;2023-06-26T13:26:21;3.90;;;1.42;;
18176;SDS011;9213;50.858;3.964;2023-06-26T13:28:50;4.43;;;1.40;;
18176;SDS011;9213;50.858;3.964;2023-06-26T13:31:17;2.15;;;1.40;;
18176;SDS011;9213;50.858;3.964;2023-06-26T13:33:44;4.70;;;1.70;;
18176;SDS011;9213;50.858;3.964;2023-06-26T13:36:15;2.97;;;1.48;;
18176;SDS011;9213;50.858;3.964;2023-06-26T13:38:42;4.70;;;1.60;;
18176;SDS011;9213;50.858;3.964;2023-06-26T13:41:09;3.13;;;1.50;;
18176;SDS011;9213;50.858;3.964;2023-06-26T13:43:35;3.13;;;1.45;;
18176;SDS011;9213;50.858;3.964;2023-06-26T13:46:03;3.65;;;1.67;;
18176;SDS011;9213;50.858;3.964;2023-06-26T13:48:29;2.20;;;1.48;;
18176;SDS011;9213;50.858;3.964;2023-06-26T13:50:58;3.45;;;1.40;;
18176;SDS011;9213;50.858;3.964;2023-06-26T13:53:27;3.53;;;1.60;;
18176;SDS011;9213;50.858;3.964;2023-06-26T13:55:53;3.10;;;1.58;;
18176;SDS011;9213;50.858;3.964;2023-06-26T13:58:20;3.65;;;1.65;;
18176;SDS011;9213;50.858;3.964;2023-06-26T14:00:48;4.55;;;1.50;;
18176;SDS011;9213;50.858;3.964;2023-06-26T14:03:15;6.47;;;1.70;;
18176;SDS011;9213;50.858;3.964;2023-06-26T14:05:42;3.58;;;1.60;;
18176;SDS011;9213;50.858;3.964;2023-06-26T14:08:09;2.10;;;1.52;;
18176;SDS011;9213;50.858;3.964;2023-06-26T14:10:38;3.33;;;2.00;;
18176;SDS011;9213;50.858;3.964;2023-06-26T14:13:05;5.03;;;1.60;;
18176;SDS011;9213;50.858;3.964;2023-06-26T14:15:33;4.95;;;1.90;;
18176;SDS011;9213;50.858;3.964;2023-06-26T14:18:01;2.85;;;1.42;;
18176;SDS011;9213;50.858;3.964;2023-06-26T14:20:29;3.60;;;1.52;;
18176;SDS011;9213;50.858;3.964;2023-06-26T14:22:57;4.40;;;1.63;;
18176;SDS011;9213;50.858;3.964;2023-06-26T14:25:25;4.35;;;1.80;;
18176;SDS011;9213;50.858;3.964;2023-06-26T14:27:54;3.88;;;1.48;;
18176;SDS011;9213;50.858;3.964;2023-06-26T14:30:22;6.43;;;2.00;;
18176;SDS011;9213;50.858;3.964;2023-06-26T14:32:49;4.90;;;1.60;;
18176;SDS011;9213;50.858;3.964;2023-06-26T14:35:16;2.45;;;1.40;;
18176;SDS011;9213;50.858;3.964;2023-06-26T14:37:43;3.33;;;1.85;;
18176;SDS011;9213;50.858;3.964;2023-06-26T14:40:10;5.63;;;1.90;;
18176;SDS011;9213;50.858;3.964;2023-06-26T14:42:38;4.45;;;1.83;;
18176;SDS011;9213;50.858;3.964;2023-06-26T14:45:07;3.17;;;1.60;;
18176;SDS011;9213;50.858;3.964;2023-06-26T14:47:34;3.38;;;1.65;;
18176;SDS011;9213;50.858;3.964;2023-06-26T14:50:01;3.88;;;1.73;;
18176;SDS011;9213;50.858;3.964;2023-06-26T14:52:28;3.03;;;1.80;;
18176;SDS011;9213;50.858;3.964;2023-06-26T14:54:55;2.78;;;1.88;;
18176;SDS011;9213;50.858;3.964;2023-06-26T14:57:22;2.63;;;1.70;;
18176;SDS011;9213;50.858;3.964;2023-06-26T14:59:49;4.22;;;1.80;;
18176;SDS011;9213;50.858;3.964;2023-06-26T15:02:17;3.88;;;1.90;;